Time;durP1;ratioP1;P1;durP2;ratioP2;P2;SDS_P1;SDS_P2;PMS_P1;PMS_P2;Temp;Humidity;BMP_temperature;BMP_pressure;BME280_temperature;BME280_humidity;BME280_pressure;Samples;Min_cycle;Max_cycle;Signal;HPM_P1;HPM_P2
2023/05/26 00:01:20;;;;;;;7.63;2.45;;;22.60;38.10;;;;;;5058747;28;20313;-62
2023/05/26 00:03:48;;;;;;;6.85;2.25;;;22.60;38.10;;;;;;5060480;28;20098;-63
2023/05/26 00:06:20;;;;;;;6.07;2.10;;;22.60;38.10;;;;;;5061490;28;20033;-61
2023/05/26 00:08:47;;;;;;;6.30;2.63;;;22.60;38.10;;;;;;5035782;28;20029;-64
2023/05/26 00:11:13;;;;;;;5.07;2.15;;;22.60;38.00;;;;;;5063708;28;20466;-65
2023/05/26 00:13:39;;;;;;;4.95;2.00;;;22.60;38.00;;;;;;5036834;28;20037;-63
2023/05/26 00:16:05;;;;;;;6.13;2.30;;;22.60;38.00;;;;;;5054269;28;20149;-63
2023/05/26 00:18:31;;;;;;;4.88;1.90;;;22.60;38.00;;;;;;5033099;28;20068;-63
2023/05/26 00:20:57;;;;;;;5.20;1.90;;;22.60;38.00;;;;;;5058600;28;20025;-61
2023/05/26 00:23:23;;;;;;;5.97;2.28;;;22.60;37.90;;;;;;5060633;28;20424;-62
2023/05/26 00:25:49;;;;;;;5.05;2.30;;;22.60;37.90;;;;;;5058147;28;20076;-62
2023/05/26 00:28:16;;;;;;;5.32;2.17;;;22.60;37.90;;;;;;5035878;28;20029;-64
2023/05/26 00:30:42;;;;;;;6.25;1.88;;;22.60;37.90;;;;;;5040289;28;20069;-64
2023/05/26 00:33:08;;;;;;;5.28;2.05;;;22.60;37.90;;;;;;5058481;28;20080;-63
2023/05/26 00:35:34;;;;;;;5.55;2.03;;;22.60;37.80;;;;;;5047148;28;20021;-65
2023/05/26 00:37:59;;;;;;;6.25;2.40;;;22.60;37.80;;;;;;5043350;28;20036;-65
2023/05/26 00:40:25;;;;;;;6.03;2.50;;;22.60;37.80;;;;;;5035858;28;20381;-63
2023/05/26 00:42:51;;;;;;;5.20;2.00;;;22.60;37.80;;;;;;5057774;28;20337;-63
2023/05/26 00:45:17;;;;;;;7.85;2.17;;;22.60;37.80;;;;;;5062302;28;20409;-63
2023/05/26 00:47:43;;;;;;;8.77;2.55;;;22.60;37.70;;;;;;5044024;28;20374;-66
2023/05/26 00:50:12;;;;;;;6.63;2.40;;;22.60;37.70;;;;;;5034672;28;20100;-63
2023/05/26 00:52:39;;;;;;;4.35;1.88;;;22.60;37.70;;;;;;5063930;28;20069;-62
2023/05/26 00:55:06;;;;;;;6.95;2.78;;;22.60;37.70;;;;;;5060287;28;20040;-64
2023/05/26 00:57:33;;;;;;;5.28;2.47;;;22.60;37.70;;;;;;5064045;28;20043;-63
2023/05/26 00:59:59;;;;;;;6.25;2.42;;;22.60;37.70;;;;;;5059272;28;20135;-64
2023/05/26 01:02:27;;;;;;;8.13;2.58;;;22.60;37.60;;;;;;5043020;28;20032;-64
2023/05/26 01:04:53;;;;;;;6.97;2.33;;;22.60;37.60;;;;;;5061355;28;20072;-65
2023/05/26 01:07:23;;;;;;;8.30;2.28;;;22.60;37.60;;;;;;5039342;28;20069;-61
2023/05/26 01:09:50;;;;;;;6.75;2.30;;;22.60;37.60;;;;;;5057276;28;20444;-66
2023/05/26 01:13:03;;;;;;;7.20;2.17;;;22.60;37.60;;;;;;5058712;28;20313;-61
2023/05/26 01:16:03;;;;;;;6.70;2.28;;;22.60;37.50;;;;;;5033164;28;20297;-61
2023/05/26 01:18:52;;;;;;;6.25;1.92;;;22.60;37.50;;;;;;5009315;28;20067;-62
2023/05/26 01:21:21;;;;;;;5.55;2.10;;;22.60;37.50;;;;;;5039862;28;20028;-65
2023/05/26 01:23:59;;;;;;;5.57;2.65;;;22.60;37.50;;;;;;5062469;28;20029;-62
2023/05/26 01:27:07;;;;;;;5.35;2.00;;;22.60;37.50;;;;;;5047323;28;20472;-63
2023/05/26 01:29:35;;;;;;;5.65;2.00;;;22.60;37.50;;;;;;5039853;28;20138;-65
2023/05/26 01:32:12;;;;;;;5.05;1.83;;;22.60;37.50;;;;;;5045204;28;20325;-61
2023/05/26 01:34:38;;;;;;;5.80;2.03;;;22.60;37.50;;;;;;5063012;28;20044;-63
2023/05/26 01:37:05;;;;;;;8.02;2.42;;;22.50;37.40;;;;;;5065503;28;20123;-63
2023/05/26 01:39:31;;;;;;;6.30;2.20;;;22.60;37.50;;;;;;5063262;28;20475;-64
2023/05/26 01:42:20;;;;;;;5.78;2.15;;;22.60;37.50;;;;;;5045522;28;20371;-65
2023/05/26 01:44:54;;;;;;;4.63;1.95;;;22.50;37.40;;;;;;5057579;28;20052;-61
2023/05/26 01:47:23;;;;;;;6.63;2.25;;;22.50;37.40;;;;;;5037198;28;20403;-62
2023/05/26 01:49:51;;;;;;;7.18;2.40;;;22.50;37.40;;;;;;5056149;28;20032;-60
2023/05/26 01:52:18;;;;;;;6.40;2.67;;;22.50;37.30;;;;;;5057369;28;20035;-63
2023/05/26 01:54:50;;;;;;;5.40;2.08;;;22.50;37.30;;;;;;5059844;28;20325;-62
2023/05/26 01:57:17;;;;;;;5.38;2.03;;;22.50;37.30;;;;;;5041945;28;20142;-64
2023/05/26 01:59:43;;;;;;;6.57;2.20;;;22.50;37.30;;;;;;5039436;28;20017;-63
2023/05/26 02:02:09;;;;;;;6.40;1.90;;;22.50;37.30;;;;;;5037524;28;20147;-63
2023/05/26 02:04:37;;;;;;;5.28;1.75;;;22.50;37.30;;;;;;5038063;28;20036;-61
2023/05/26 02:07:05;;;;;;;7.38;2.38;;;22.50;37.30;;;;;;5045518;28;20051;-62
2023/05/26 02:09:35;;;;;;;7.00;2.25;;;22.50;37.30;;;;;;5042307;28;20466;-62
2023/05/26 02:12:02;;;;;;;5.97;2.33;;;22.50;37.40;;;;;;5042284;28;20105;-63
2023/05/26 02:14:28;;;;;;;7.93;2.03;;;22.50;37.40;;;;;;5039880;28;20032;-63
2023/05/26 02:16:54;;;;;;;7.20;2.08;;;22.50;37.40;;;;;;5056819;28;20322;-62
2023/05/26 02:19:20;;;;;;;5.60;2.30;;;22.50;37.40;;;;;;5041750;28;20429;-61
2023/05/26 02:21:46;;;;;;;5.32;2.25;;;22.50;37.40;;;;;;5038174;28;20032;-61
2023/05/26 02:24:12;;;;;;;5.93;2.05;;;22.50;37.40;;;;;;5037840;28;20135;-64
2023/05/26 02:26:38;;;;;;;4.13;1.83;;;22.50;37.40;;;;;;5047221;28;20330;-62
2023/05/26 02:29:05;;;;;;;7.82;2.15;;;22.50;37.40;;;;;;5046405;28;20028;-64
2023/05/26 02:31:33;;;;;;;6.40;1.90;;;22.50;37.40;;;;;;5037320;28;20048;-62
2023/05/26 02:34:01;;;;;;;6.38;2.17;;;22.50;37.40;;;;;;5062480;28;20028;-61
2023/05/26 02:36:27;;;;;;;6.47;2.33;;;22.50;37.30;;;;;;5046660;28;20119;-63
2023/05/26 02:38:53;;;;;;;6.60;2.30;;;22.50;37.30;;;;;;5039383;28;20147;-62
2023/05/26 02:41:21;;;;;;;5.82;1.90;;;22.50;37.40;;;;;;5020650;28;20397;-63
2023/05/26 02:43:47;;;;;;;5.82;2.13;;;22.50;37.30;;;;;;5033802;28;20064;-61
2023/05/26 02:46:13;;;;;;;6.15;1.98;;;22.50;37.30;;;;;;5023093;28;20171;-61
2023/05/26 02:48:39;;;;;;;4.90;2.33;;;22.50;37.30;;;;;;5017620;28;20374;-63
2023/05/26 02:51:05;;;;;;;5.70;2.35;;;22.50;37.30;;;;;;5019893;28;20044;-61
2023/05/26 02:53:32;;;;;;;6.70;2.40;;;22.50;38.00;;;;;;5011606;28;20104;-63
2023/05/26 02:55:58;;;;;;;5.88;2.25;;;22.50;37.30;;;;;;5020294;28;20073;-61
2023/05/26 02:58:24;;;;;;;5.30;1.95;;;22.50;37.30;;;;;;5018003;28;20421;-61
2023/05/26 03:00:50;;;;;;;6.30;2.15;;;22.50;37.30;;;;;;5023261;28;20120;-63
2023/05/26 03:03:16;;;;;;;5.50;2.10;;;22.40;37.20;;;;;;5012113;28;20109;-61
2023/05/26 03:05:42;;;;;;;4.18;1.83;;;22.50;37.30;;;;;;5018581;28;20085;-63
2023/05/26 03:08:08;;;;;;;5.95;1.90;;;22.40;37.20;;;;;;5017445;28;20026;-63
2023/05/26 03:10:36;;;;;;;5.18;2.00;;;22.40;37.20;;;;;;5014517;28;20402;-61
2023/05/26 03:13:02;;;;;;;5.68;2.00;;;22.40;37.20;;;;;;5014568;28;20032;-60
2023/05/26 03:15:35;;;;;;;4.55;1.60;;;22.40;37.20;;;;;;5010272;28;20422;-61
2023/05/26 03:18:01;;;;;;;5.85;1.83;;;22.40;37.20;;;;;;5015737;28;20037;-62
2023/05/26 03:20:29;;;;;;;6.55;2.15;;;22.40;37.20;;;;;;5019610;28;20425;-62
2023/05/26 03:22:56;;;;;;;6.25;2.38;;;22.40;37.20;;;;;;5020629;28;20036;-62
2023/05/26 03:25:22;;;;;;;6.45;2.22;;;22.40;37.20;;;;;;5012605;28;20042;-63
2023/05/26 03:27:50;;;;;;;8.40;2.03;;;22.40;37.20;;;;;;5022747;28;20064;-63
2023/05/26 03:30:17;;;;;;;6.20;2.10;;;22.40;37.20;;;;;;5014626;28;20084;-60
2023/05/26 03:32:44;;;;;;;6.43;2.25;;;22.40;37.20;;;;;;5005519;28;20026;-62
2023/05/26 03:35:10;;;;;;;6.10;2.13;;;22.40;37.20;;;;;;5018776;28;20030;-63
2023/05/26 03:37:37;;;;;;;7.28;2.30;;;22.40;37.20;;;;;;5018028;28;20052;-63
2023/05/26 03:40:05;;;;;;;5.22;1.90;;;22.40;37.10;;;;;;5022827;28;20095;-63
2023/05/26 03:42:32;;;;;;;4.47;1.90;;;22.40;37.10;;;;;;5002738;28;20029;-60
2023/05/26 03:44:58;;;;;;;5.93;2.00;;;22.40;37.10;;;;;;5030610;28;20052;-62
2023/05/26 03:47:24;;;;;;;4.35;1.75;;;22.40;37.10;;;;;;5025683;28;20030;-65
2023/05/26 03:49:51;;;;;;;5.97;1.90;;;22.40;37.10;;;;;;5039763;28;20592;-62
2023/05/26 03:52:17;;;;;;;5.15;1.73;;;22.40;37.10;;;;;;5042932;28;20040;-62
2023/05/26 03:54:43;;;;;;;5.20;1.75;;;22.40;37.20;;;;;;5039347;28;20024;-64
2023/05/26 03:57:09;;;;;;;6.57;2.08;;;22.40;37.30;;;;;;5037184;28;20040;-62
2023/05/26 03:59:35;;;;;;;5.97;2.05;;;22.40;37.20;;;;;;5036108;28;20076;-63
2023/05/26 04:02:03;;;;;;;5.00;2.13;;;22.40;37.20;;;;;;5039004;28;20089;-62
2023/05/26 04:04:29;;;;;;;4.50;1.90;;;22.40;37.20;;;;;;5020980;28;20021;-65
2023/05/26 04:06:56;;;;;;;6.80;2.40;;;22.30;37.10;;;;;;5037988;28;20037;-64
2023/05/26 04:09:22;;;;;;;6.75;2.40;;;22.40;37.20;;;;;;5037434;28;20067;-64
2023/05/26 04:11:48;;;;;;;6.03;2.08;;;22.40;37.20;;;;;;5040497;28;20056;-62
2023/05/26 04:14:14;;;;;;;4.30;1.80;;;22.40;37.20;;;;;;5038393;28;20035;-62
2023/05/26 04:16:40;;;;;;;5.03;2.08;;;22.40;37.10;;;;;;5040195;28;20034;-62
2023/05/26 04:19:05;;;;;;;7.13;2.25;;;22.40;37.10;;;;;;5040346;28;20029;-63
2023/05/26 04:21:31;;;;;;;5.38;1.90;;;22.40;37.10;;;;;;5044037;28;20142;-62
2023/05/26 04:23:57;;;;;;;7.57;2.40;;;22.40;37.00;;;;;;5037121;28;20343;-62
2023/05/26 04:26:32;;;;;;;6.05;2.10;;;22.40;37.10;;;;;;5040525;28;20112;-63
2023/05/26 04:29:15;;;;;;;3.38;1.60;;;22.40;37.00;;;;;;5037533;28;20021;-61
2023/05/26 04:31:44;;;;;;;4.53;1.85;;;22.40;37.00;;;;;;5043278;28;20083;-63
2023/05/26 04:34:39;;;;;;;5.97;2.20;;;22.40;37.00;;;;;;5030655;28;20068;-61
2023/05/26 04:37:22;;;;;;;5.83;1.73;;;22.40;37.00;;;;;;5041586;28;20182;-64
2023/05/26 04:39:48;;;;;;;5.15;1.80;;;22.40;37.00;;;;;;5040592;28;20338;-62
2023/05/26 04:42:15;;;;;;;6.50;2.05;;;22.40;37.00;;;;;;5042320;28;20029;-62
2023/05/26 04:44:43;;;;;;;6.28;2.00;;;22.40;36.90;;;;;;5058496;28;20033;-60
2023/05/26 04:47:09;;;;;;;4.68;1.90;;;22.40;37.50;;;;;;5035713;28;20120;-61
2023/05/26 04:49:38;;;;;;;5.47;2.00;;;22.40;36.90;;;;;;5042355;28;20381;-60
2023/05/26 04:52:04;;;;;;;4.43;1.50;;;22.40;36.90;;;;;;5044633;28;20037;-62
2023/05/26 04:54:31;;;;;;;5.57;1.90;;;22.40;36.90;;;;;;5040207;28;20025;-61
2023/05/26 04:56:57;;;;;;;7.95;2.38;;;22.40;36.90;;;;;;5044732;28;20049;-60
2023/05/26 04:59:32;;;;;;;7.47;2.28;;;22.40;36.90;;;;;;5040386;28;20033;-61
2023/05/26 05:01:58;;;;;;;6.30;2.03;;;22.40;36.80;;;;;;5057522;28;20025;-61
2023/05/26 05:04:31;;;;;;;4.55;1.80;;;22.50;37.50;;;;;;5045618;28;20087;-63
2023/05/26 05:06:57;;;;;;;4.55;1.90;;;22.40;36.90;;;;;;5046541;28;20106;-61
2023/05/26 05:09:23;;;;;;;6.32;2.13;;;22.40;36.80;;;;;;5038682;28;20451;-63
2023/05/26 05:11:49;;;;;;;6.63;2.20;;;22.50;36.90;;;;;;5045887;28;20368;-61
2023/05/26 05:14:16;;;;;;;6.93;2.58;;;22.40;36.80;;;;;;5038673;28;20326;-63
2023/05/26 05:16:42;;;;;;;5.70;2.10;;;22.40;36.80;;;;;;5040098;28;20174;-64
2023/05/26 05:19:08;;;;;;;5.80;1.95;;;22.40;36.80;;;;;;5042070;28;20068;-62
2023/05/26 05:21:42;;;;;;;6.93;2.10;;;22.50;36.80;;;;;;5045660;28;20051;-64
2023/05/26 05:24:08;;;;;;;5.45;2.00;;;22.50;36.80;;;;;;5036753;28;20116;-62
2023/05/26 05:26:33;;;;;;;7.50;2.22;;;22.50;36.80;;;;;;5043938;28;20444;-63
2023/05/26 05:28:59;;;;;;;6.30;2.55;;;22.40;36.80;;;;;;5039107;28;20511;-61
2023/05/26 05:31:32;;;;;;;5.30;2.10;;;22.50;36.80;;;;;;5042481;28;20395;-61
2023/05/26 05:33:58;;;;;;;5.57;2.05;;;22.50;36.80;;;;;;5046407;28;20036;-63
2023/05/26 05:36:23;;;;;;;5.13;1.92;;;22.50;36.80;;;;;;5037992;28;20373;-62
2023/05/26 05:38:50;;;;;;;8.10;2.35;;;22.50;36.70;;;;;;5038718;28;20089;-61
2023/05/26 05:41:17;;;;;;;7.30;2.50;;;22.50;36.70;;;;;;5042005;28;20446;-63
2023/05/26 05:43:43;;;;;;;4.88;2.10;;;22.50;36.70;;;;;;5041972;28;20053;-63
2023/05/26 05:46:09;;;;;;;5.55;2.10;;;22.50;36.70;;;;;;5038424;28;20053;-61
2023/05/26 05:48:36;;;;;;;5.32;2.33;;;22.50;36.70;;;;;;5044642;28;20390;-60
2023/05/26 05:51:09;;;;;;;6.93;2.00;;;22.50;36.80;;;;;;5037443;28;20029;-62
2023/05/26 05:53:47;;;;;;;5.25;2.00;;;22.50;36.80;;;;;;5036081;28;20500;-63
2023/05/26 05:56:13;;;;;;;4.45;1.60;;;22.50;36.90;;;;;;5033273;28;20045;-62
2023/05/26 05:58:40;;;;;;;4.82;1.70;;;22.50;36.90;;;;;;5045842;28;20119;-64
2023/05/26 06:01:07;;;;;;;6.57;2.17;;;22.50;36.90;;;;;;5037515;28;20470;-63
2023/05/26 06:03:32;;;;;;;5.75;1.83;;;22.50;37.00;;;;;;5033990;28;20052;-63
2023/05/26 06:05:58;;;;;;;5.43;1.90;;;22.50;37.00;;;;;;5026557;28;20101;-60
2023/05/26 06:08:27;;;;;;;4.85;2.10;;;22.50;37.00;;;;;;5024725;28;20048;-61
2023/05/26 06:10:53;;;;;;;4.57;1.65;;;22.50;37.00;;;;;;5027533;28;20405;-63
2023/05/26 06:13:19;;;;;;;5.53;2.00;;;22.50;37.10;;;;;;5027483;28;20029;-61
2023/05/26 06:15:45;;;;;;;4.88;1.75;;;22.50;37.10;;;;;;5032331;28;20113;-63
2023/05/26 06:18:11;;;;;;;7.10;1.70;;;22.50;37.10;;;;;;5025346;28;20068;-63
2023/05/26 06:20:37;;;;;;;4.60;2.10;;;22.50;37.20;;;;;;5026114;28;20102;-62
2023/05/26 06:23:04;;;;;;;5.82;2.03;;;22.50;37.20;;;;;;5028667;28;20089;-62
2023/05/26 06:25:30;;;;;;;5.78;2.05;;;22.50;37.30;;;;;;5026331;28;20091;-64
2023/05/26 06:27:56;;;;;;;6.38;2.25;;;22.50;37.30;;;;;;5028620;28;20029;-63
2023/05/26 06:30:23;;;;;;;5.70;1.88;;;22.50;37.30;;;;;;5031772;28;20224;-65
2023/05/26 06:32:57;;;;;;;6.72;2.10;;;22.50;37.30;;;;;;5032501;28;20358;-63
2023/05/26 06:35:31;;;;;;;6.00;2.15;;;22.50;37.30;;;;;;5034035;28;20034;-66
2023/05/26 06:37:58;;;;;;;4.63;1.55;;;22.40;37.30;;;;;;5031043;28;20175;-63
2023/05/26 06:40:25;;;;;;;4.75;1.83;;;22.50;37.40;;;;;;5015678;28;20035;-64
2023/05/26 06:42:53;;;;;;;5.45;1.73;;;22.50;37.40;;;;;;5030195;28;20105;-65
2023/05/26 06:45:21;;;;;;;4.88;1.63;;;22.50;37.40;;;;;;5022596;28;20222;-64
2023/05/26 06:47:50;;;;;;;6.43;1.90;;;22.50;37.40;;;;;;5024944;28;20091;-63
2023/05/26 06:50:16;;;;;;;4.40;1.50;;;22.50;37.40;;;;;;5025407;28;20032;-62
2023/05/26 06:52:46;;;;;;;7.05;2.00;;;22.50;37.50;;;;;;5023005;28;20029;-64
2023/05/26 06:55:12;;;;;;;4.82;2.10;;;22.50;37.50;;;;;;5021210;28;20021;-61
2023/05/26 06:57:38;;;;;;;5.88;1.80;;;22.50;37.60;;;;;;5013074;28;20037;-61
2023/05/26 07:00:05;;;;;;;5.18;1.85;;;22.50;37.60;;;;;;5013952;28;20168;-63
2023/05/26 07:02:31;;;;;;;6.05;1.90;;;22.50;37.70;;;;;;5016254;28;20109;-64
2023/05/26 07:05:17;;;;;;;4.72;1.80;;;22.50;37.70;;;;;;5013587;28;20120;-60
2023/05/26 07:07:44;;;;;;;4.50;1.60;;;22.50;37.70;;;;;;5015579;28;20030;-61
2023/05/26 07:10:10;;;;;;;4.97;1.80;;;22.50;37.60;;;;;;5016118;28;20335;-61
2023/05/26 07:12:36;;;;;;;6.70;2.10;;;22.50;37.60;;;;;;5010820;28;20069;-63
2023/05/26 07:15:15;;;;;;;5.35;2.10;;;22.50;37.50;;;;;;5019177;28;20120;-63
2023/05/26 07:17:41;;;;;;;5.70;2.10;;;22.50;37.50;;;;;;5017959;28;20395;-65
2023/05/26 07:20:07;;;;;;;5.78;1.77;;;22.50;37.40;;;;;;5016691;28;20049;-63
2023/05/26 07:22:33;;;;;;;4.72;1.75;;;22.50;37.30;;;;;;5017390;28;20112;-62
2023/05/26 07:25:14;;;;;;;3.45;1.45;;;22.50;37.20;;;;;;5017050;28;20078;-61
2023/05/26 07:27:45;;;;;;;4.35;1.55;;;22.50;37.20;;;;;;5013770;28;20090;-64
2023/05/26 07:30:12;;;;;;;4.25;1.42;;;22.50;37.20;;;;;;5014763;28;20113;-65
2023/05/26 07:32:50;;;;;;;4.53;1.52;;;22.50;37.10;;;;;;5010064;28;20029;-61
2023/05/26 07:35:17;;;;;;;5.03;2.13;;;22.50;37.00;;;;;;5024185;28;20120;-62
2023/05/26 07:37:43;;;;;;;5.00;2.17;;;22.50;37.60;;;;;;5021970;28;20496;-65
2023/05/26 07:40:09;;;;;;;5.85;1.77;;;22.50;36.90;;;;;;5013624;28;20108;-61
2023/05/26 07:42:35;;;;;;;5.32;1.52;;;22.50;36.90;;;;;;5013482;28;20079;-62
2023/05/26 07:45:01;;;;;;;5.50;1.88;;;22.50;36.90;;;;;;5042954;28;20044;-62
2023/05/26 07:47:31;;;;;;;4.22;1.85;;;22.50;36.80;;;;;;5039382;28;20116;-62
2023/05/26 07:50:00;;;;;;;5.45;1.90;;;22.50;36.80;;;;;;5053759;28;20032;-61
2023/05/26 07:52:27;;;;;;;5.47;1.60;;;22.50;36.80;;;;;;5034870;28;20029;-61
2023/05/26 07:54:53;;;;;;;6.65;1.80;;;22.50;36.80;;;;;;5057220;28;20024;-61
2023/05/26 07:57:18;;;;;;;3.78;1.50;;;22.50;36.80;;;;;;5054521;28;20049;-66
2023/05/26 07:59:44;;;;;;;5.38;1.85;;;22.50;36.90;;;;;;5055418;28;20051;-63
2023/05/26 08:02:11;;;;;;;5.15;1.80;;;22.50;36.80;;;;;;5033266;28;20025;-61
2023/05/26 08:04:37;;;;;;;3.58;1.33;;;22.50;36.70;;;;;;5053588;28;20061;-62
2023/05/26 08:07:04;;;;;;;5.28;1.85;;;22.60;36.70;;;;;;5062052;28;20166;-64
2023/05/26 08:09:38;;;;;;;3.05;1.42;;;22.60;36.70;;;;;;5062465;28;20044;-63
2023/05/26 08:12:06;;;;;;;4.57;1.75;;;22.60;36.70;;;;;;5063219;28;20067;-63
2023/05/26 08:14:33;;;;;;;6.57;1.73;;;22.50;36.60;;;;;;5060755;28;20046;-62
2023/05/26 08:16:58;;;;;;;4.22;1.70;;;22.50;36.60;;;;;;5058021;28;20052;-62
2023/05/26 08:19:24;;;;;;;4.90;1.88;;;22.50;36.50;;;;;;5035573;28;20069;-65
2023/05/26 08:21:50;;;;;;;6.85;1.95;;;22.50;36.50;;;;;;5035220;28;20029;-63
2023/05/26 08:24:16;;;;;;;5.60;1.75;;;22.50;36.40;;;;;;5053009;28;20132;-65
2023/05/26 08:26:42;;;;;;;4.15;1.63;;;22.50;36.40;;;;;;5053807;28;20090;-61
2023/05/26 08:29:09;;;;;;;4.55;1.73;;;22.60;36.40;;;;;;5052774;28;20044;-61
2023/05/26 08:31:35;;;;;;;3.53;1.52;;;22.50;36.30;;;;;;5059879;28;20104;-64
2023/05/26 08:34:01;;;;;;;6.30;1.80;;;22.50;36.20;;;;;;5035266;28;20071;-61
2023/05/26 08:36:27;;;;;;;6.05;1.80;;;22.50;36.20;;;;;;5033012;28;20028;-64
2023/05/26 08:38:52;;;;;;;4.18;1.42;;;22.50;36.20;;;;;;5034916;28;20033;-63
2023/05/26 08:41:21;;;;;;;4.57;1.33;;;22.50;36.10;;;;;;5052100;28;20025;-60
2023/05/26 08:43:52;;;;;;;4.78;1.65;;;22.50;36.10;;;;;;5057387;28;20413;-62
2023/05/26 08:46:19;;;;;;;5.35;1.73;;;22.50;36.10;;;;;;5035050;28;20036;-63
2023/05/26 08:48:48;;;;;;;5.68;1.80;;;22.50;36.10;;;;;;5056064;28;20040;-64
2023/05/26 08:51:17;;;;;;;5.15;1.80;;;22.50;36.00;;;;;;5057078;28;20029;-63
2023/05/26 08:53:45;;;;;;;5.15;1.83;;;22.50;35.90;;;;;;5033743;28;20107;-61
2023/05/26 08:56:11;;;;;;;5.80;1.90;;;22.50;35.80;;;;;;5049007;28;20359;-61
2023/05/26 08:58:39;;;;;;;6.00;2.15;;;22.50;35.80;;;;;;5054453;28;20079;-60
2023/05/26 09:01:05;;;;;;;4.53;1.70;;;22.50;35.70;;;;;;5054370;28;20037;-62
2023/05/26 09:03:31;;;;;;;5.00;1.70;;;22.50;35.70;;;;;;5052529;28;20029;-64
2023/05/26 09:05:57;;;;;;;5.20;1.98;;;22.50;35.60;;;;;;5060243;28;20180;-61
2023/05/26 09:08:23;;;;;;;4.95;1.50;;;22.50;35.60;;;;;;5052805;28;20107;-63
2023/05/26 09:10:49;;;;;;;6.53;1.77;;;22.50;35.60;;;;;;5054904;28;20085;-63
2023/05/26 09:13:18;;;;;;;4.47;1.60;;;22.50;35.50;;;;;;5057146;28;20305;-60
2023/05/26 09:15:50;;;;;;;5.07;1.58;;;22.50;35.50;;;;;;5057537;28;20108;-61
2023/05/26 09:18:16;;;;;;;4.90;2.00;;;22.50;35.50;;;;;;5057173;28;20025;-63
2023/05/26 09:20:48;;;;;;;6.15;1.73;;;22.50;35.50;;;;;;5060168;28;20150;-61
2023/05/26 09:23:16;;;;;;;5.60;2.08;;;22.50;35.40;;;;;;5058622;28;20036;-60
2023/05/26 09:25:44;;;;;;;4.78;2.05;;;22.50;35.40;;;;;;5062087;28;20142;-62
2023/05/26 09:28:12;;;;;;;5.18;1.80;;;22.50;35.40;;;;;;5058742;28;20411;-60
2023/05/26 09:30:40;;;;;;;4.28;2.15;;;22.50;35.30;;;;;;5040321;28;20111;-61
2023/05/26 09:33:11;;;;;;;4.93;2.08;;;22.50;35.30;;;;;;5059057;28;20032;-62
2023/05/26 09:35:39;;;;;;;5.70;2.10;;;22.50;35.30;;;;;;5056649;28;20029;-62
2023/05/26 09:38:06;;;;;;;6.28;2.08;;;22.50;35.30;;;;;;5055714;28;20396;-62
2023/05/26 09:40:43;;;;;;;5.88;2.00;;;22.50;35.30;;;;;;5053508;28;20540;-62
2023/05/26 09:43:09;;;;;;;5.80;1.90;;;22.50;35.30;;;;;;5040928;28;20032;-64
2023/05/26 09:45:36;;;;;;;6.07;2.13;;;22.50;35.20;;;;;;5034003;28;20065;-63
2023/05/26 09:48:04;;;;;;;5.15;2.30;;;22.50;35.10;;;;;;5027563;28;20539;-61
2023/05/26 09:50:31;;;;;;;5.03;1.85;;;22.50;35.10;;;;;;5030483;28;20036;-64
2023/05/26 09:52:59;;;;;;;5.10;1.90;;;22.50;35.10;;;;;;5027729;28;20392;-62
2023/05/26 09:55:24;;;;;;;6.47;2.28;;;22.50;35.00;;;;;;5031324;28;20033;-61
2023/05/26 09:57:53;;;;;;;5.70;2.00;;;22.50;35.00;;;;;;5034866;28;20028;-63
2023/05/26 10:00:20;;;;;;;4.15;1.90;;;22.50;35.00;;;;;;5011770;28;20029;-63
2023/05/26 10:02:47;;;;;;;5.43;2.03;;;22.50;35.10;;;;;;5033409;28;20179;-63
2023/05/26 10:05:17;;;;;;;4.85;1.90;;;22.50;35.00;;;;;;5037024;28;20036;-61
2023/05/26 10:07:44;;;;;;;4.20;1.63;;;22.50;35.10;;;;;;5027371;28;20330;-63
2023/05/26 10:10:14;;;;;;;3.15;1.40;;;22.50;35.00;;;;;;5033443;28;20124;-64
2023/05/26 10:12:42;;;;;;;4.70;1.83;;;22.50;35.00;;;;;;5030783;28;20032;-63
2023/05/26 10:15:09;;;;;;;4.03;1.38;;;22.60;35.10;;;;;;5030572;28;20161;-61
2023/05/26 10:17:35;;;;;;;6.00;2.17;;;22.50;35.00;;;;;;5030315;28;20410;-62
2023/05/26 10:20:03;;;;;;;6.35;2.10;;;22.50;35.00;;;;;;5035643;28;20028;-63
2023/05/26 10:22:39;;;;;;;6.88;1.85;;;22.50;35.00;;;;;;5032975;28;20060;-62
2023/05/26 10:25:14;;;;;;;5.43;1.75;;;22.50;34.90;;;;;;5032104;28;20021;-64
2023/05/26 10:27:42;;;;;;;;;;;22.60;35.00;;;;;;5038042;28;20049;-66
2023/05/26 10:30:15;;;;;;;4.00;1.45;;;22.60;35.00;;;;;;5036488;28;19909;-61
2023/05/26 10:32:41;;;;;;;4.75;1.95;;;22.50;35.00;;;;;;5033390;28;20025;-63
2023/05/26 10:35:20;;;;;;;5.55;1.60;;;22.60;35.00;;;;;;5029444;28;20036;-61
2023/05/26 10:38:02;;;;;;;6.35;1.80;;;22.50;35.20;;;;;;5032599;28;20104;-60
2023/05/26 10:40:33;;;;;;;6.63;2.15;;;22.50;35.50;;;;;;5034517;28;20492;-62
2023/05/26 10:43:18;;;;;;;6.13;2.00;;;22.60;35.70;;;;;;5033997;28;20374;-62
2023/05/26 10:45:58;;;;;;;6.95;2.40;;;22.60;35.90;;;;;;5051540;28;20044;-64
2023/05/26 10:48:37;;;;;;;5.40;2.17;;;22.60;35.90;;;;;;5049012;28;20037;-61
2023/05/26 10:51:08;;;;;;;6.75;2.50;;;22.60;35.90;;;;;;5054499;28;20547;-64
2023/05/26 10:53:43;;;;;;;5.97;2.35;;;22.60;35.90;;;;;;5050613;28;20025;-64
2023/05/26 10:56:13;;;;;;;8.90;2.28;;;22.70;36.00;;;;;;5035073;28;20315;-62
2023/05/26 10:58:58;;;;;;;6.45;2.25;;;22.70;36.00;;;;;;5047230;28;20021;-60
2023/05/26 11:01:30;;;;;;;8.57;2.22;;;22.70;35.90;;;;;;5049580;28;20039;-62
2023/05/26 11:04:12;;;;;;;6.82;2.28;;;22.70;35.90;;;;;;5049912;28;20032;-62
2023/05/26 11:06:56;;;;;;;6.78;2.08;;;22.70;35.90;;;;;;5050127;28;20282;-64
2023/05/26 11:09:25;;;;;;;5.53;1.88;;;22.70;35.90;;;;;;5050315;28;20055;-61
2023/05/26 11:11:55;;;;;;;6.60;2.53;;;22.70;35.90;;;;;;5031979;28;20406;-63
2023/05/26 11:14:33;;;;;;;4.93;1.95;;;22.80;36.00;;;;;;5032124;28;20043;-64
2023/05/26 11:17:02;;;;;;;5.15;1.90;;;22.80;35.90;;;;;;5060061;28;20033;-64
2023/05/26 11:19:36;;;;;;;6.75;2.10;;;22.80;35.90;;;;;;5058850;28;20032;-65
2023/05/26 11:22:09;;;;;;;5.55;2.28;;;22.80;35.80;;;;;;5070255;28;20366;-60
2023/05/26 11:24:36;;;;;;;5.57;1.92;;;22.80;35.70;;;;;;5051914;28;20039;-64
2023/05/26 11:27:04;;;;;;;4.72;1.88;;;22.80;35.40;;;;;;5069735;28;20032;-63
2023/05/26 11:29:30;;;;;;;4.68;1.88;;;22.80;35.20;;;;;;5070169;28;20065;-66
2023/05/26 11:31:56;;;;;;;4.65;1.80;;;22.80;35.10;;;;;;5069845;28;20036;-63
2023/05/26 11:34:24;;;;;;;6.28;2.00;;;22.80;34.90;;;;;;5051996;28;20037;-62
2023/05/26 11:36:53;;;;;;;4.53;2.03;;;22.80;34.80;;;;;;5049580;28;20029;-61
2023/05/26 11:39:21;;;;;;;7.38;1.92;;;22.80;34.70;;;;;;5050070;28;20033;-62
2023/05/26 11:41:48;;;;;;;5.07;1.67;;;22.80;34.70;;;;;;5049617;28;20396;-64
2023/05/26 11:44:15;;;;;;;5.55;1.70;;;22.80;34.60;;;;;;5049385;28;20140;-66
2023/05/26 11:46:42;;;;;;;6.63;1.70;;;22.80;34.60;;;;;;5049698;28;20426;-63
2023/05/26 11:49:18;;;;;;;4.65;1.48;;;22.80;34.50;;;;;;5050182;28;20321;-63
2023/05/26 11:51:51;;;;;;;5.35;1.65;;;22.80;34.30;;;;;;5050582;28;20032;-63
2023/05/26 11:54:19;;;;;;;5.35;2.08;;;22.80;34.30;;;;;;5056834;28;20029;-63
2023/05/26 11:56:46;;;;;;;6.85;2.28;;;22.90;34.60;;;;;;5053907;28;20049;-63
2023/05/26 11:59:17;;;;;;;6.10;2.22;;;22.90;34.90;;;;;;5063241;28;20081;-64
2023/05/26 12:01:49;;;;;;;6.68;2.20;;;22.90;35.10;;;;;;5058459;28;20078;-64
2023/05/26 12:04:26;;;;;;;7.28;2.40;;;22.90;35.20;;;;;;5071340;28;20033;-63
2023/05/26 12:06:52;;;;;;;4.05;1.95;;;22.90;35.40;;;;;;5059151;28;20036;-63
2023/05/26 12:09:23;;;;;;;4.03;1.73;;;22.90;35.40;;;;;;5055409;28;20081;-66
2023/05/26 12:11:52;;;;;;;5.47;1.80;;;22.90;35.40;;;;;;5063880;28;20124;-65
2023/05/26 12:14:22;;;;;;;7.30;2.10;;;23.00;35.50;;;;;;5031447;28;20346;-66
2023/05/26 12:16:54;;;;;;;3.75;1.63;;;23.00;35.50;;;;;;5055977;28;20032;-63
2023/05/26 12:19:23;;;;;;;5.05;2.03;;;23.00;35.50;;;;;;5031793;28;20035;-66
2023/05/26 12:21:52;;;;;;;4.88;1.58;;;23.00;35.40;;;;;;5031252;28;20196;-65
2023/05/26 12:24:37;;;;;;;5.05;1.90;;;23.00;35.40;;;;;;5050367;28;20124;-63
2023/05/26 12:27:11;;;;;;;4.03;1.80;;;23.00;35.30;;;;;;5053080;28;20325;-65
2023/05/26 12:29:41;;;;;;;;;;;23.00;35.30;;;;;;5036349;28;20033;-66
2023/05/26 12:32:09;;;;;;;4.90;1.67;;;23.00;35.30;;;;;;5053688;28;20352;-64
2023/05/26 12:34:41;;;;;;;4.53;1.63;;;23.00;35.30;;;;;;5019498;28;20024;-63
2023/05/26 12:37:08;;;;;;;5.40;1.52;;;23.00;35.30;;;;;;5053016;28;20044;-66
2023/05/26 12:39:34;;;;;;;5.10;1.88;;;23.10;35.30;;;;;;5053477;28;20458;-66
2023/05/26 12:42:06;;;;;;;4.20;1.50;;;23.10;35.30;;;;;;5054584;28;20048;-62
2023/05/26 12:44:33;;;;;;;3.10;1.47;;;23.10;35.30;;;;;;5061989;28;20098;-64
2023/05/26 12:46:59;;;;;;;5.85;1.92;;;23.10;35.40;;;;;;5077164;28;20068;-64
2023/05/26 12:49:25;;;;;;;5.10;1.65;;;23.10;35.40;;;;;;5077569;28;20040;-62
2023/05/26 12:51:51;;;;;;;2.97;1.33;;;23.10;35.40;;;;;;5054297;28;20071;-61
2023/05/26 12:54:20;;;;;;;4.30;1.65;;;23.10;35.30;;;;;;5088748;28;20139;-66
2023/05/26 12:56:47;;;;;;;4.22;1.88;;;23.20;35.40;;;;;;5069429;28;20032;-63